DAH6385 DAUA-DAOO
Flight info
| Callsign | DAH6385 |
|---|---|
| Flight time | 1h 23m |
| Altitude | 33000 |
| Route | ADR UJ40 TIO UG26 BAY/N0481F320 UA604 MOS |
| Aircraft | B722/M-SDFHIWY/C |
Departure
| Time | 2026-05-04 18:08 |
|---|---|
| Airport | Touat-Cheikh Sidi Mohamed Belkebir Airport (DAUA) |
Arrival
| Time | 2026-05-04 19:31 |
|---|---|
| Airport | Oran Es-Sénia (Ahmed Ben Bella) International Airport (DAOO) |
| Time | Latitude | Longitude | Altitude | Speed | Heading |
|---|---|---|---|---|---|
| 2026-05-04 17:34 | 27.84004 | -0.18919 | 930 ft | 0 kts | 176° |
| 2026-05-04 18:02 | 27.83982 | -0.18904 | 933 ft | 6 kts | 136° |
| 2026-05-04 18:02 | 27.83982 | -0.18865 | 933 ft | 6 kts | 54° |
| 2026-05-04 18:02 | 27.84022 | -0.18819 | 934 ft | 11 kts | 41° |
| 2026-05-04 18:02 | 27.84071 | -0.18762 | 933 ft | 9 kts | 76° |
| 2026-05-04 18:03 | 27.84032 | -0.18688 | 933 ft | 14 kts | 130° |
| 2026-05-04 18:03 | 27.83953 | -0.18584 | 933 ft | 19 kts | 128° |
| 2026-05-04 18:03 | 27.83935 | -0.18506 | 936 ft | 9 kts | 46° |
| 2026-05-04 18:03 | 27.83996 | -0.18443 | 933 ft | 15 kts | 42° |
| 2026-05-04 18:04 | 27.84087 | -0.18359 | 937 ft | 19 kts | 39° |
| 2026-05-04 18:04 | 27.84207 | -0.18248 | 932 ft | 25 kts | 39° |
| 2026-05-04 18:04 | 27.84522 | -0.17956 | 930 ft | 32 kts | 39° |
| 2026-05-04 18:05 | 27.84685 | -0.17805 | 933 ft | 22 kts | 39° |
| 2026-05-04 18:05 | 27.84721 | -0.17773 | 934 ft | 0 kts | 39° |
| 2026-05-04 18:05 | 27.84722 | -0.17771 | 934 ft | 2 kts | 39° |
| 2026-05-04 18:05 | 27.84761 | -0.17750 | 934 ft | 10 kts | 10° |
| 2026-05-04 18:06 | 27.84778 | -0.17721 | 936 ft | 6 kts | 219° |
| 2026-05-04 18:06 | 27.84775 | -0.17723 | 935 ft | 0 kts | 219° |
| 2026-05-04 18:07 | 27.84741 | -0.17754 | 935 ft | 15 kts | 219° |
| 2026-05-04 18:07 | 27.84555 | -0.17925 | 934 ft | 60 kts | 219° |
| 2026-05-04 18:07 | 27.84106 | -0.18343 | 936 ft | 104 kts | 219° |
| 2026-05-04 18:07 | 27.83451 | -0.18943 | 932 ft | 135 kts | 217° |
| 2026-05-04 18:08 | 27.82709 | -0.19619 | 1158 ft | 137 kts | 215° |
| 2026-05-04 18:08 | 27.81948 | -0.20299 | 1374 ft | 146 kts | 216° |
| 2026-05-04 18:08 | 27.81127 | -0.21063 | 1496 ft | 154 kts | 215° |
| 2026-05-04 18:08 | 27.80296 | -0.21803 | 1896 ft | 149 kts | 219° |
| 2026-05-04 18:09 | 27.78615 | -0.23146 | 2739 ft | 148 kts | 198° |
| 2026-05-04 18:09 | 27.76873 | -0.22094 | 3389 ft | 168 kts | 114° |
| 2026-05-04 18:10 | 27.76800 | -0.20735 | 3599 ft | 184 kts | 72° |
| 2026-05-04 18:10 | 27.77505 | -0.19518 | 3844 ft | 192 kts | 37° |
| 2026-05-04 18:10 | 27.78717 | -0.18975 | 4228 ft | 187 kts | 359° |
| 2026-05-04 18:10 | 27.80036 | -0.18957 | 4491 ft | 196 kts | 356° |
| 2026-05-04 18:11 | 27.81420 | -0.19006 | 4795 ft | 199 kts | 353° |
| 2026-05-04 18:11 | 27.82825 | -0.19060 | 5131 ft | 208 kts | 3° |
| 2026-05-04 18:11 | 27.84272 | -0.18712 | 5434 ft | 219 kts | 16° |
| 2026-05-04 18:11 | 27.85761 | -0.18181 | 5737 ft | 228 kts | 13° |
| 2026-05-04 18:12 | 27.87347 | -0.17719 | 6109 ft | 245 kts | 12° |
| 2026-05-04 18:12 | 27.89072 | -0.17240 | 6489 ft | 266 kts | 11° |
| 2026-05-04 18:12 | 27.90931 | -0.16769 | 6994 ft | 282 kts | 9° |
| 2026-05-04 18:12 | 27.92915 | -0.16323 | 7412 ft | 302 kts | 9° |
| 2026-05-04 18:13 | 27.95045 | -0.15832 | 7816 ft | 323 kts | 9° |
| 2026-05-04 18:13 | 27.97310 | -0.15243 | 8156 ft | 345 kts | 11° |
| 2026-05-04 18:13 | 28.02187 | -0.13778 | 9078 ft | 376 kts | 13° |
| 2026-05-04 18:14 | 28.04718 | -0.12959 | 9825 ft | 380 kts | 13° |
| 2026-05-04 18:14 | 28.07261 | -0.12122 | 10596 ft | 382 kts | 13° |
| 2026-05-04 18:14 | 28.09822 | -0.11278 | 11364 ft | 384 kts | 13° |
| 2026-05-04 18:15 | 28.14875 | -0.09381 | 13208 ft | 384 kts | 26° |
| 2026-05-04 18:15 | 28.19579 | -0.06616 | 14690 ft | 380 kts | 12° |
| 2026-05-04 18:15 | 28.22137 | -0.05950 | 15547 ft | 378 kts | 9° |
| 2026-05-04 18:16 | 28.24716 | -0.05250 | 16154 ft | 384 kts | 9° |
| 2026-05-04 18:16 | 28.27292 | -0.04516 | 16840 ft | 389 kts | 11° |
| 2026-05-04 18:16 | 28.29917 | -0.03731 | 17514 ft | 393 kts | 10° |
| 2026-05-04 18:17 | 28.35259 | -0.02122 | 18767 ft | 400 kts | 10° |
| 2026-05-04 18:17 | 28.37962 | -0.01319 | 19353 ft | 403 kts | 8° |
| 2026-05-04 18:17 | 28.43466 | 0.00182 | 20506 ft | 410 kts | 8° |
| 2026-05-04 18:18 | 28.46243 | 0.00970 | 21056 ft | 413 kts | 8° |
| 2026-05-04 18:18 | 28.49045 | 0.01773 | 21609 ft | 417 kts | 8° |
| 2026-05-04 18:18 | 28.51862 | 0.02613 | 22146 ft | 421 kts | 9° |
| 2026-05-04 18:18 | 28.54697 | 0.03509 | 22682 ft | 424 kts | 9° |
| 2026-05-04 18:19 | 28.60426 | 0.05337 | 23643 ft | 431 kts | 9° |
| 2026-05-04 18:19 | 28.63319 | 0.06271 | 24088 ft | 433 kts | 9° |
| 2026-05-04 18:19 | 28.66227 | 0.07212 | 24519 ft | 436 kts | 9° |
| 2026-05-04 18:20 | 28.69152 | 0.08155 | 24945 ft | 438 kts | 9° |
| 2026-05-04 18:20 | 28.72091 | 0.09100 | 25379 ft | 440 kts | 9° |
| 2026-05-04 18:20 | 28.75044 | 0.10046 | 25795 ft | 442 kts | 8° |
| 2026-05-04 18:20 | 28.78017 | 0.10996 | 26197 ft | 445 kts | 8° |
| 2026-05-04 18:21 | 28.80999 | 0.11950 | 26593 ft | 447 kts | 8° |
| 2026-05-04 18:21 | 28.84001 | 0.12918 | 26975 ft | 449 kts | 8° |
| 2026-05-04 18:21 | 28.87018 | 0.13895 | 27340 ft | 452 kts | 8° |
| 2026-05-04 18:21 | 28.90050 | 0.14882 | 27703 ft | 454 kts | 8° |
| 2026-05-04 18:22 | 28.93092 | 0.15881 | 28079 ft | 456 kts | 8° |
| 2026-05-04 18:22 | 28.96150 | 0.16889 | 28431 ft | 459 kts | 8° |
| 2026-05-04 18:22 | 28.99223 | 0.17906 | 28767 ft | 461 kts | 8° |
| 2026-05-04 18:22 | 29.02305 | 0.18935 | 29106 ft | 463 kts | 8° |
| 2026-05-04 18:23 | 29.05409 | 0.19974 | 29448 ft | 465 kts | 8° |
| 2026-05-04 18:23 | 29.08523 | 0.21020 | 29769 ft | 467 kts | 8° |
| 2026-05-04 18:23 | 29.11650 | 0.22077 | 30032 ft | 470 kts | 8° |
| 2026-05-04 18:23 | 29.14795 | 0.23143 | 30316 ft | 471 kts | 8° |
| 2026-05-04 18:24 | 29.17944 | 0.24200 | 30571 ft | 473 kts | 8° |
| 2026-05-04 18:24 | 29.21110 | 0.25252 | 30820 ft | 474 kts | 7° |
| 2026-05-04 18:24 | 29.24307 | 0.26143 | 31078 ft | 474 kts | 6° |
| 2026-05-04 18:24 | 29.27456 | 0.27164 | 31356 ft | 476 kts | 6° |
| 2026-05-04 18:25 | 29.30681 | 0.27903 | 31650 ft | 471 kts | 360° |
| 2026-05-04 18:25 | 29.33930 | 0.28381 | 31943 ft | 471 kts | 358° |
| 2026-05-04 18:25 | 29.37190 | 0.28840 | 32229 ft | 473 kts | 359° |
| 2026-05-04 18:25 | 29.40458 | 0.29322 | 32516 ft | 475 kts | 358° |
| 2026-05-04 18:26 | 29.43749 | 0.29805 | 32776 ft | 477 kts | 358° |
| 2026-05-04 18:26 | 29.47067 | 0.30325 | 32786 ft | 486 kts | 360° |
| 2026-05-04 18:26 | 29.53866 | 0.31457 | 32783 ft | 500 kts | 0° |
| 2026-05-04 18:27 | 29.60755 | 0.32711 | 32784 ft | 501 kts | 1° |
| 2026-05-04 18:27 | 29.67636 | 0.33972 | 32780 ft | 500 kts | 1° |
| 2026-05-04 18:28 | 29.74478 | 0.35218 | 32784 ft | 496 kts | 0° |
| 2026-05-04 18:28 | 29.81281 | 0.36452 | 32789 ft | 494 kts | 0° |
| 2026-05-04 18:29 | 29.88065 | 0.37682 | 32789 ft | 493 kts | 0° |
| 2026-05-04 18:29 | 29.94829 | 0.38916 | 32791 ft | 492 kts | 0° |
| 2026-05-04 18:30 | 30.04967 | 0.40768 | 32795 ft | 491 kts | 0° |
| 2026-05-04 18:31 | 30.11666 | 0.41995 | 32800 ft | 490 kts | 0° |
| 2026-05-04 18:31 | 30.18397 | 0.43229 | 32805 ft | 489 kts | 0° |
| 2026-05-04 18:32 | 30.25123 | 0.44468 | 32802 ft | 489 kts | 0° |
| 2026-05-04 18:32 | 30.31846 | 0.45715 | 32810 ft | 489 kts | 1° |
| 2026-05-04 18:33 | 30.38574 | 0.46953 | 32815 ft | 490 kts | 1° |
| 2026-05-04 18:33 | 30.45322 | 0.48189 | 32817 ft | 491 kts | 1° |
| 2026-05-04 18:34 | 30.52081 | 0.49420 | 32821 ft | 493 kts | 1° |
| 2026-05-04 18:34 | 30.58861 | 0.50650 | 32828 ft | 494 kts | 1° |
| 2026-05-04 18:35 | 30.65656 | 0.51880 | 32832 ft | 494 kts | 1° |
| 2026-05-04 18:35 | 30.72458 | 0.53108 | 32833 ft | 495 kts | 1° |
| 2026-05-04 18:36 | 30.79269 | 0.54332 | 32836 ft | 496 kts | 1° |
| 2026-05-04 18:36 | 30.86092 | 0.55649 | 32838 ft | 497 kts | 1° |
| 2026-05-04 18:37 | 30.92925 | 0.56950 | 32840 ft | 498 kts | 1° |
| 2026-05-04 18:37 | 30.99715 | 0.58238 | 32842 ft | 498 kts | 1° |
| 2026-05-04 18:38 | 31.06517 | 0.60111 | 32846 ft | 501 kts | 4° |
| 2026-05-04 18:38 | 31.13352 | 0.61225 | 32842 ft | 495 kts | 359° |
| 2026-05-04 18:39 | 31.20204 | 0.62183 | 32848 ft | 497 kts | 360° |
| 2026-05-04 18:39 | 31.27062 | 0.63253 | 32850 ft | 498 kts | 0° |
| 2026-05-04 18:40 | 31.33937 | 0.64438 | 32855 ft | 499 kts | 1° |
| 2026-05-04 18:40 | 31.40814 | 0.65630 | 32851 ft | 500 kts | 1° |
| 2026-05-04 18:41 | 31.47703 | 0.66821 | 32858 ft | 501 kts | 1° |
| 2026-05-04 18:41 | 31.54609 | 0.68013 | 32861 ft | 502 kts | 1° |
| 2026-05-04 18:42 | 31.61518 | 0.69294 | 32867 ft | 503 kts | 1° |
| 2026-05-04 18:42 | 31.68430 | 0.70551 | 32868 ft | 503 kts | 1° |
| 2026-05-04 18:43 | 31.75354 | 0.71815 | 32871 ft | 503 kts | 1° |
| 2026-05-04 18:43 | 31.82232 | 0.73068 | 32878 ft | 504 kts | 1° |
| 2026-05-04 18:44 | 31.89158 | 0.74341 | 32888 ft | 504 kts | 2° |
| 2026-05-04 18:44 | 31.96098 | 0.75608 | 32890 ft | 505 kts | 2° |
| 2026-05-04 18:45 | 32.03039 | 0.76870 | 32888 ft | 505 kts | 2° |
| 2026-05-04 18:45 | 32.09990 | 0.78131 | 32891 ft | 506 kts | 2° |
| 2026-05-04 18:46 | 32.16948 | 0.79390 | 32893 ft | 506 kts | 2° |
| 2026-05-04 18:46 | 32.23909 | 0.80647 | 32901 ft | 506 kts | 2° |
| 2026-05-04 18:47 | 32.30805 | 0.81887 | 32904 ft | 507 kts | 2° |
| 2026-05-04 18:47 | 32.36687 | 0.82943 | 32901 ft | 507 kts | 2° |
| 2026-05-04 18:48 | 32.43674 | 0.84194 | 32904 ft | 508 kts | 2° |
| 2026-05-04 18:48 | 32.50663 | 0.85459 | 32911 ft | 509 kts | 3° |
| 2026-05-04 18:49 | 32.57657 | 0.86789 | 32912 ft | 509 kts | 2° |
| 2026-05-04 18:49 | 32.64653 | 0.88102 | 32909 ft | 508 kts | 2° |
| 2026-05-04 18:50 | 32.71623 | 0.89405 | 32912 ft | 506 kts | 2° |
| 2026-05-04 18:50 | 32.78564 | 0.90701 | 32917 ft | 504 kts | 2° |
| 2026-05-04 18:51 | 32.85482 | 0.91985 | 32923 ft | 502 kts | 3° |
| 2026-05-04 18:51 | 32.92318 | 0.93263 | 32926 ft | 501 kts | 3° |
| 2026-05-04 18:52 | 32.99259 | 0.94583 | 32929 ft | 500 kts | 3° |
| 2026-05-04 18:52 | 33.06131 | 0.95860 | 32931 ft | 499 kts | 3° |
| 2026-05-04 18:53 | 33.13000 | 0.97143 | 32937 ft | 502 kts | 3° |
| 2026-05-04 18:53 | 33.19930 | 0.98430 | 32943 ft | 505 kts | 3° |
| 2026-05-04 18:54 | 33.26902 | 0.99718 | 32943 ft | 508 kts | 3° |
| 2026-05-04 18:54 | 33.33852 | 1.00996 | 32948 ft | 509 kts | 3° |
| 2026-05-04 18:55 | 33.40858 | 1.02282 | 32977 ft | 510 kts | 3° |
| 2026-05-04 18:55 | 33.51375 | 1.04211 | 33029 ft | 510 kts | 3° |
| 2026-05-04 18:56 | 33.58391 | 1.05563 | 33056 ft | 510 kts | 4° |
| 2026-05-04 18:56 | 33.65401 | 1.06898 | 33083 ft | 510 kts | 4° |
| 2026-05-04 18:57 | 33.72415 | 1.07862 | 33067 ft | 500 kts | 351° |
| 2026-05-04 18:57 | 33.75809 | 1.07227 | 33054 ft | 490 kts | 340° |
| 2026-05-04 18:57 | 33.78984 | 1.05841 | 32804 ft | 484 kts | 332° |
| 2026-05-04 18:58 | 33.82092 | 1.04279 | 32555 ft | 485 kts | 332° |
| 2026-05-04 18:58 | 33.85209 | 1.02737 | 32301 ft | 485 kts | 332° |
| 2026-05-04 18:58 | 33.88353 | 1.01233 | 32050 ft | 486 kts | 333° |
| 2026-05-04 18:58 | 33.91492 | 0.99761 | 32028 ft | 482 kts | 333° |
| 2026-05-04 18:59 | 33.97729 | 0.96971 | 31993 ft | 478 kts | 334° |
| 2026-05-04 18:59 | 34.03992 | 0.94188 | 31971 ft | 480 kts | 335° |
| 2026-05-04 19:00 | 34.10304 | 0.91507 | 31970 ft | 481 kts | 335° |
| 2026-05-04 19:00 | 34.16620 | 0.88822 | 31971 ft | 481 kts | 335° |
| 2026-05-04 19:01 | 34.22928 | 0.86137 | 31982 ft | 480 kts | 335° |
| 2026-05-04 19:01 | 34.29153 | 0.83484 | 31987 ft | 480 kts | 335° |
| 2026-05-04 19:02 | 34.35527 | 0.80765 | 31990 ft | 480 kts | 335° |
| 2026-05-04 19:02 | 34.41826 | 0.78074 | 31999 ft | 480 kts | 335° |
| 2026-05-04 19:03 | 34.48072 | 0.75402 | 31994 ft | 479 kts | 335° |
| 2026-05-04 19:03 | 34.54359 | 0.72708 | 32010 ft | 479 kts | 335° |
| 2026-05-04 19:04 | 34.60646 | 0.70009 | 32010 ft | 479 kts | 335° |
| 2026-05-04 19:04 | 34.66901 | 0.67326 | 32010 ft | 470 kts | 334° |
| 2026-05-04 19:05 | 34.72958 | 0.64751 | 31999 ft | 454 kts | 334° |
| 2026-05-04 19:05 | 34.75922 | 0.63501 | 31873 ft | 450 kts | 334° |
| 2026-05-04 19:05 | 34.78885 | 0.62250 | 31521 ft | 452 kts | 334° |
| 2026-05-04 19:06 | 34.81837 | 0.60981 | 31344 ft | 448 kts | 333° |
| 2026-05-04 19:06 | 34.84734 | 0.59699 | 30861 ft | 441 kts | 333° |
| 2026-05-04 19:06 | 34.87627 | 0.58434 | 30098 ft | 443 kts | 334° |
| 2026-05-04 19:06 | 34.90530 | 0.57186 | 29979 ft | 437 kts | 334° |
| 2026-05-04 19:07 | 34.93379 | 0.55943 | 29566 ft | 434 kts | 333° |
| 2026-05-04 19:07 | 34.96225 | 0.54695 | 29059 ft | 434 kts | 334° |
| 2026-05-04 19:07 | 34.99053 | 0.53467 | 28697 ft | 430 kts | 334° |
| 2026-05-04 19:07 | 35.01863 | 0.52238 | 28264 ft | 428 kts | 334° |
| 2026-05-04 19:08 | 35.04665 | 0.51021 | 27857 ft | 426 kts | 334° |
| 2026-05-04 19:08 | 35.07447 | 0.49813 | 27467 ft | 424 kts | 334° |
| 2026-05-04 19:08 | 35.10217 | 0.48606 | 27082 ft | 422 kts | 334° |
| 2026-05-04 19:08 | 35.12974 | 0.47409 | 26709 ft | 420 kts | 334° |
| 2026-05-04 19:09 | 35.15717 | 0.46220 | 26324 ft | 416 kts | 334° |
| 2026-05-04 19:09 | 35.18444 | 0.45038 | 25817 ft | 415 kts | 334° |
| 2026-05-04 19:09 | 35.21162 | 0.43855 | 25339 ft | 413 kts | 334° |
| 2026-05-04 19:09 | 35.23860 | 0.42684 | 24875 ft | 411 kts | 334° |
| 2026-05-04 19:10 | 35.26552 | 0.41518 | 24409 ft | 409 kts | 334° |
| 2026-05-04 19:10 | 35.29229 | 0.40360 | 23958 ft | 407 kts | 334° |
| 2026-05-04 19:10 | 35.31892 | 0.39209 | 23517 ft | 405 kts | 334° |
| 2026-05-04 19:10 | 35.34510 | 0.38076 | 23001 ft | 403 kts | 334° |
| 2026-05-04 19:11 | 35.37139 | 0.36939 | 22531 ft | 399 kts | 334° |
| 2026-05-04 19:11 | 35.39749 | 0.35804 | 22060 ft | 397 kts | 334° |
| 2026-05-04 19:11 | 35.42342 | 0.34678 | 21595 ft | 394 kts | 334° |
| 2026-05-04 19:11 | 35.44918 | 0.33561 | 21151 ft | 391 kts | 334° |
| 2026-05-04 19:12 | 35.47479 | 0.32452 | 20705 ft | 389 kts | 334° |
| 2026-05-04 19:12 | 35.52518 | 0.30259 | 19393 ft | 382 kts | 334° |
| 2026-05-04 19:12 | 35.55011 | 0.29162 | 18736 ft | 378 kts | 333° |
| 2026-05-04 19:13 | 35.57482 | 0.28098 | 18077 ft | 375 kts | 334° |
| 2026-05-04 19:13 | 35.59932 | 0.27053 | 17370 ft | 372 kts | 334° |
| 2026-05-04 19:13 | 35.62366 | 0.26019 | 16707 ft | 368 kts | 334° |
| 2026-05-04 19:13 | 35.64781 | 0.24994 | 16028 ft | 366 kts | 334° |
| 2026-05-04 19:14 | 35.67171 | 0.23963 | 15420 ft | 361 kts | 333° |
| 2026-05-04 19:14 | 35.69534 | 0.22943 | 14775 ft | 358 kts | 334° |
| 2026-05-04 19:14 | 35.71874 | 0.21929 | 14067 ft | 356 kts | 334° |
| 2026-05-04 19:14 | 35.74198 | 0.20926 | 13351 ft | 353 kts | 334° |
| 2026-05-04 19:15 | 35.76505 | 0.19932 | 12631 ft | 349 kts | 334° |
| 2026-05-04 19:15 | 35.78788 | 0.18949 | 11951 ft | 346 kts | 335° |
| 2026-05-04 19:15 | 35.81051 | 0.17963 | 11260 ft | 344 kts | 335° |
| 2026-05-04 19:15 | 35.83296 | 0.16997 | 10617 ft | 341 kts | 335° |
| 2026-05-04 19:16 | 35.85528 | 0.16038 | 10010 ft | 338 kts | 335° |
| 2026-05-04 19:16 | 35.87742 | 0.15089 | 9395 ft | 334 kts | 335° |
| 2026-05-04 19:16 | 35.89805 | 0.14037 | 8891 ft | 307 kts | 323° |
| 2026-05-04 19:16 | 35.91203 | 0.12250 | 8365 ft | 280 kts | 293° |
| 2026-05-04 19:17 | 35.91578 | 0.10023 | 7880 ft | 260 kts | 262° |
| 2026-05-04 19:17 | 35.90894 | 0.08020 | 7394 ft | 258 kts | 232° |
| 2026-05-04 19:17 | 35.89702 | 0.06379 | 7025 ft | 257 kts | 231° |
| 2026-05-04 19:17 | 35.88567 | 0.04684 | 6629 ft | 256 kts | 234° |
| 2026-05-04 19:18 | 35.87498 | 0.02926 | 6215 ft | 256 kts | 236° |
| 2026-05-04 19:18 | 35.86492 | 0.01118 | 5806 ft | 255 kts | 238° |
| 2026-05-04 19:18 | 35.85536 | -0.00720 | 5389 ft | 255 kts | 239° |
| 2026-05-04 19:18 | 35.84571 | -0.02552 | 4999 ft | 255 kts | 239° |
| 2026-05-04 19:19 | 35.83663 | -0.04422 | 4610 ft | 254 kts | 241° |
| 2026-05-04 19:19 | 35.82776 | -0.06303 | 4225 ft | 253 kts | 241° |
| 2026-05-04 19:19 | 35.81909 | -0.08175 | 3995 ft | 246 kts | 242° |
| 2026-05-04 19:19 | 35.81116 | -0.09978 | 3990 ft | 232 kts | 243° |
| 2026-05-04 19:20 | 35.80398 | -0.11696 | 3983 ft | 220 kts | 244° |
| 2026-05-04 19:20 | 35.79744 | -0.13314 | 3979 ft | 208 kts | 245° |
| 2026-05-04 19:20 | 35.79119 | -0.14894 | 3977 ft | 197 kts | 245° |
| 2026-05-04 19:20 | 35.78549 | -0.16353 | 3977 ft | 186 kts | 245° |
| 2026-05-04 19:21 | 35.78008 | -0.17748 | 3967 ft | 175 kts | 246° |
| 2026-05-04 19:21 | 35.77503 | -0.19059 | 3963 ft | 163 kts | 246° |
| 2026-05-04 19:21 | 35.77034 | -0.20279 | 3923 ft | 153 kts | 246° |
| 2026-05-04 19:21 | 35.76589 | -0.21440 | 3787 ft | 148 kts | 246° |
| 2026-05-04 19:22 | 35.76157 | -0.22573 | 3591 ft | 145 kts | 246° |
| 2026-05-04 19:22 | 35.75642 | -0.23633 | 3345 ft | 147 kts | 229° |
| 2026-05-04 19:22 | 35.75157 | -0.24327 | 3189 ft | 144 kts | 243° |
| 2026-05-04 19:22 | 35.74826 | -0.25420 | 2962 ft | 142 kts | 253° |
| 2026-05-04 19:23 | 35.74474 | -0.26539 | 2778 ft | 139 kts | 246° |
| 2026-05-04 19:23 | 35.74085 | -0.27631 | 2547 ft | 139 kts | 249° |
| 2026-05-04 19:23 | 35.73727 | -0.28723 | 2360 ft | 136 kts | 247° |
| 2026-05-04 19:23 | 35.73352 | -0.29787 | 2088 ft | 137 kts | 249° |
| 2026-05-04 19:24 | 35.72995 | -0.30884 | 1849 ft | 138 kts | 247° |
| 2026-05-04 19:24 | 35.72759 | -0.31545 | 3965 ft | 0 kts | 246° |
| 2026-05-04 19:24 | 35.72446 | -0.32483 | 4630 ft | 135 kts | 250° |
| 2026-05-04 19:24 | 35.72050 | -0.33654 | 4143 ft | 153 kts | 247° |
| 2026-05-04 19:25 | 35.71649 | -0.34819 | 4053 ft | 144 kts | 250° |
| 2026-05-04 19:25 | 35.71258 | -0.35995 | 3977 ft | 158 kts | 247° |
| 2026-05-04 19:25 | 35.70834 | -0.37218 | 4360 ft | 144 kts | 250° |
| 2026-05-04 19:25 | 35.70484 | -0.38280 | 4596 ft | 134 kts | 248° |
| 2026-05-04 19:26 | 35.70089 | -0.39416 | 4076 ft | 156 kts | 249° |
| 2026-05-04 19:26 | 35.69686 | -0.40634 | 3755 ft | 147 kts | 248° |
| 2026-05-04 19:26 | 35.69306 | -0.41718 | 3544 ft | 129 kts | 250° |
| 2026-05-04 19:26 | 35.68990 | -0.42684 | 3345 ft | 116 kts | 248° |
| 2026-05-04 19:27 | 35.68662 | -0.43617 | 3219 ft | 126 kts | 250° |
| 2026-05-04 19:27 | 35.68327 | -0.44636 | 3054 ft | 126 kts | 248° |
| 2026-05-04 19:27 | 35.67985 | -0.45609 | 2886 ft | 125 kts | 250° |
| 2026-05-04 19:27 | 35.67654 | -0.46621 | 2730 ft | 130 kts | 248° |
| 2026-05-04 19:28 | 35.67291 | -0.47654 | 2537 ft | 132 kts | 249° |
| 2026-05-04 19:28 | 35.66947 | -0.48705 | 2368 ft | 133 kts | 248° |
| 2026-05-04 19:28 | 35.66577 | -0.49756 | 2194 ft | 135 kts | 249° |
| 2026-05-04 19:28 | 35.66228 | -0.50822 | 2007 ft | 136 kts | 248° |
| 2026-05-04 19:29 | 35.65853 | -0.51888 | 1825 ft | 133 kts | 248° |
| 2026-05-04 19:29 | 35.65515 | -0.52921 | 1644 ft | 127 kts | 248° |
| 2026-05-04 19:29 | 35.65189 | -0.53890 | 1470 ft | 124 kts | 247° |
| 2026-05-04 19:29 | 35.64868 | -0.54891 | 1321 ft | 127 kts | 246° |
| 2026-05-04 19:30 | 35.64508 | -0.55903 | 1172 ft | 132 kts | 244° |
| 2026-05-04 19:30 | 35.64152 | -0.56943 | 1021 ft | 131 kts | 245° |
| 2026-05-04 19:30 | 35.63828 | -0.57972 | 795 ft | 127 kts | 243° |
| 2026-05-04 19:30 | 35.63483 | -0.58956 | 640 ft | 129 kts | 241° |
| 2026-05-04 19:31 | 35.63119 | -0.59956 | 466 ft | 127 kts | 244° |
| 2026-05-04 19:31 | 35.62786 | -0.60934 | 314 ft | 119 kts | 244° |
| 2026-05-04 19:31 | 35.62529 | -0.61678 | 312 ft | 70 kts | 247° |
| 2026-05-04 19:31 | 35.62386 | -0.62104 | 312 ft | 45 kts | 248° |
| 2026-05-04 19:32 | 35.62282 | -0.62405 | 313 ft | 19 kts | 244° |
| 2026-05-04 19:32 | 35.62194 | -0.62466 | 313 ft | 17 kts | 170° |
| 2026-05-04 19:32 | 35.62070 | -0.62408 | 313 ft | 21 kts | 157° |
| 2026-05-04 19:32 | 35.61916 | -0.62331 | 313 ft | 26 kts | 158° |
| 2026-05-04 19:33 | 35.61798 | -0.62211 | 313 ft | 18 kts | 109° |
| 2026-05-04 19:33 | 35.61815 | -0.62050 | 311 ft | 21 kts | 68° |
| 2026-05-04 19:33 | 35.61878 | -0.61871 | 312 ft | 25 kts | 65° |
| 2026-05-04 19:33 | 35.61951 | -0.61666 | 313 ft | 28 kts | 68° |
| 2026-05-04 19:34 | 35.62027 | -0.61434 | 313 ft | 31 kts | 67° |
| 2026-05-04 19:34 | 35.62114 | -0.61181 | 313 ft | 33 kts | 67° |
| 2026-05-04 19:34 | 35.62180 | -0.60986 | 313 ft | 20 kts | 68° |
| 2026-05-04 19:34 | 35.62239 | -0.60814 | 313 ft | 23 kts | 67° |
| 2026-05-04 19:35 | 35.62252 | -0.60698 | 313 ft | 13 kts | 133° |
| 2026-05-04 19:35 | 35.62233 | -0.60680 | 313 ft | 0 kts | 152° |
| 2026-05-04 19:36 | 35.62228 | -0.60677 | 313 ft | 3 kts | 152° |
| 2026-05-04 19:36 | 35.62189 | -0.60679 | 313 ft | 8 kts | 221° |
| 2026-05-04 19:36 | 35.62137 | -0.60704 | 313 ft | 8 kts | 167° |
| 2026-05-04 19:37 | 35.62118 | -0.60701 | 313 ft | 2 kts | 169° |
| 2026-05-04 19:37 | 35.62114 | -0.60701 | 313 ft | 1 kts | 189° |
| 2026-05-04 19:37 | 35.62112 | -0.60702 | 313 ft | 0 kts | 204° |
| 2026-05-04 19:37 | 35.62111 | -0.60702 | 313 ft | 0 kts | 202° |
| 2026-05-04 19:39 | 35.62115 | -0.60701 | 313 ft | 0 kts | 202° |